Aviation Digital Data Service (ADDS)

Output produced by METARs form (1826 UTC 22 November 2017)
found at http://www.aviationweather.gov/adds/metars/
 
VLLB 221300Z 00000KT 9999 SCT018 26/22 Q1011 NOSIG
TAF VLLB 221700Z 2218/2318 34004KT 9999 SCT020 SCT050 
     TEMPO 2218/2222 3000 BR SCT013 SCT060 BKN080
       
VLPS 221300Z 04012KT 9999 FEW020 BKN050 25/20 Q1010 NOSIG
TAF VLPS 221700Z 2218/2318 32008KT 9999 SCT020 FEW050
       
TAF VLSK 221700Z 2218/2318 04004KT 7000 SCT020 SCT100 
     TEMPO 2218/2222 3000 BR SCT040 SCT100
       
VLVT 221630Z 02002KT 4000 BR FEW050 24/21 Q1013 NOSIG
TAF VLVT 221700Z 2218/2318 09006KT 8000 SCT020 FEW050 
     TEMPO 2218/2222 4000 BR FEW050
       
VLLB 221300Z 00000KT 9999 SCT018 26/22 Q1011 NOSIG
TAF VLLB 221700Z 2218/2318 34004KT 9999 SCT020 SCT050 
     TEMPO 2218/2222 3000 BR SCT013 SCT060 BKN080
       
TAF VLLN 221700Z 2218/2318 32004KT 8000 SCT020 SCT100 
     TEMPO 2218/2222 3000 BR SCT010 OVC090
       
VLPS 221300Z 04012KT 9999 FEW020 BKN050 25/20 Q1010 NOSIG
TAF VLPS 221700Z 2218/2318 32008KT 9999 SCT020 FEW050
       
TAF VLSK 221700Z 2218/2318 04004KT 7000 SCT020 SCT100 
     TEMPO 2218/2222 3000 BR SCT040 SCT100
       
VLVT 221630Z 02002KT 4000 BR FEW050 24/21 Q1013 NOSIG
TAF VLVT 221700Z 2218/2318 09006KT 8000 SCT020 FEW050 
     TEMPO 2218/2222 4000 BR FEW050